Time;durP1;ratioP1;P1;durP2;ratioP2;P2;SDS_P1;SDS_P2;PMS_P1;PMS_P2;Temp;Humidity;BMP_temperature;BMP_pressure;BME280_temperature;BME280_humidity;BME280_pressure;Samples;Min_cycle;Max_cycle;Signal;HPM_P1;HPM_P2
2023/03/12 00:01:20;;;;;;;11.25;4.88;;;;;;;2.48;95.13;101138.19;4900498;29;20054;-75
2023/03/12 00:03:48;;;;;;;8.27;4.87;;;;;;;2.47;90.73;101141.72;4913070;29;20056;-75
2023/03/12 00:06:16;;;;;;;7.35;4.70;;;;;;;2.53;92.64;101137.94;4901227;29;20535;-76
2023/03/12 00:08:43;;;;;;;14.88;5.85;;;;;;;2.55;92.95;101143.88;4895674;29;20056;-75
2023/03/12 00:11:12;;;;;;;9.57;5.90;;;;;;;2.57;90.88;101139.44;4900142;29;20143;-75
2023/03/12 00:13:39;;;;;;;9.70;5.47;;;;;;;2.58;92.24;101131.56;4910203;29;20051;-75
2023/03/12 00:16:12;;;;;;;12.35;5.68;;;;;;;2.66;94.35;101130.28;4912012;29;20054;-75
2023/03/12 00:18:39;;;;;;;10.40;5.40;;;;;;;2.68;94.98;101131.03;4922615;29;20056;-74
2023/03/12 00:21:07;;;;;;;8.52;4.85;;;;;;;2.67;92.40;101126.81;4933722;29;20620;-75
2023/03/12 00:23:33;;;;;;;9.07;4.47;;;;;;;2.68;90.63;101126.69;4908980;29;20111;-75
2023/03/12 00:26:06;;;;;;;8.32;4.85;;;;;;;2.68;89.66;101105.97;4904458;29;20044;-74
2023/03/12 00:28:33;;;;;;;12.68;4.75;;;;;;;2.73;87.82;101114.31;4902026;29;20072;-75
2023/03/12 00:31:02;;;;;;;7.55;4.65;;;;;;;2.76;89.21;101118.47;4912986;29;20509;-75
2023/03/12 00:33:28;;;;;;;8.00;4.55;;;;;;;2.80;89.75;101113.97;4906917;29;20079;-75
2023/03/12 00:35:58;;;;;;;8.32;4.30;;;;;;;2.76;88.93;101113.28;4900214;29;20493;-73
2023/03/12 00:38:25;;;;;;;9.60;4.43;;;;;;;2.76;89.16;101111.56;4912432;29;20055;-75
2023/03/12 00:40:51;;;;;;;7.35;4.05;;;;;;;2.78;89.95;101098.50;4901672;29;20421;-73
2023/03/12 00:43:18;;;;;;;9.77;6.07;;;;;;;2.76;89.19;101096.00;4907514;29;20047;-75
2023/03/12 00:45:44;;;;;;;10.80;4.78;;;;;;;2.82;89.82;101091.38;4905465;29;20055;-75
2023/03/12 00:48:11;;;;;;;7.80;4.78;;;;;;;2.84;87.63;101095.53;4911810;29;20126;-75
2023/03/12 00:50:37;;;;;;;9.13;4.53;;;;;;;2.84;90.09;101092.94;4907579;29;20060;-75
2023/03/12 00:53:04;;;;;;;6.70;4.10;;;;;;;2.79;86.11;101092.41;4908832;29;20048;-76
2023/03/12 00:55:30;;;;;;;7.82;4.47;;;;;;;2.76;87.56;101089.97;4907601;29;20048;-75
2023/03/12 00:57:57;;;;;;;11.32;4.82;;;;;;;2.77;87.54;101076.13;4901170;29;20087;-74
2023/03/12 01:00:23;;;;;;;11.20;4.68;;;;;;;2.83;87.89;101080.94;4915916;29;20052;-75
2023/03/12 01:02:50;;;;;;;9.55;4.05;;;;;;;2.75;85.97;101071.03;4905001;29;20083;-75
2023/03/12 01:05:17;;;;;;;11.07;4.88;;;;;;;2.75;85.79;101071.03;4911056;29;20056;-76
2023/03/12 01:07:43;;;;;;;7.60;4.28;;;;;;;2.75;87.35;101080.56;4904118;29;20410;-74
2023/03/12 01:10:12;;;;;;;10.40;4.80;;;;;;;2.69;85.14;101086.94;4910451;29;20056;-74
2023/03/12 01:12:38;;;;;;;;;;;;;;;2.76;88.27;101085.66;4917527;29;20075;-76
2023/03/12 01:15:05;;;;;;;12.00;4.70;;;;;;;2.74;87.93;101081.47;4903087;29;20015;-75
2023/03/12 01:17:32;;;;;;;11.45;4.55;;;;;;;2.74;88.37;101082.31;4915860;29;20088;-74
2023/03/12 01:19:59;;;;;;;9.48;4.35;;;;;;;2.75;88.96;101086.56;4905526;29;20082;-76
2023/03/12 01:22:25;;;;;;;11.13;4.88;;;;;;;2.75;87.56;101081.38;4907250;29;20187;-75
2023/03/12 01:24:52;;;;;;;12.73;4.90;;;;;;;2.75;87.35;101075.38;4901607;29;20052;-75
2023/03/12 01:27:19;;;;;;;8.68;4.30;;;;;;;2.79;87.98;101070.84;4909917;29;20048;-76
2023/03/12 01:29:45;;;;;;;9.38;4.90;;;;;;;2.79;87.07;101065.66;4913303;29;20079;-76
2023/03/12 01:32:12;;;;;;;6.50;3.88;;;;;;;2.76;86.34;101058.91;4908620;29;20087;-76
2023/03/12 01:34:39;;;;;;;7.55;3.67;;;;;;;2.73;86.38;101051.31;4920937;29;20118;-75
2023/03/12 01:37:06;;;;;;;9.40;3.45;;;;;;;2.73;87.40;101057.31;4903793;29;20056;-73
2023/03/12 01:39:33;;;;;;;7.55;3.17;;;;;;;2.70;85.97;101054.91;4910943;29;20060;-75
2023/03/12 01:42:00;;;;;;;10.00;3.20;;;;;;;2.77;88.22;101048.44;4918156;29;20131;-76
2023/03/12 01:44:27;;;;;;;5.45;3.33;;;;;;;2.76;86.47;101033.00;4909227;29;20420;-76
2023/03/12 01:46:54;;;;;;;5.85;3.35;;;;;;;2.74;86.55;101034.84;4907463;29;20470;-76
2023/03/12 01:49:31;;;;;;;6.70;3.00;;;;;;;2.83;88.45;101047.25;4907031;29;20048;-76
2023/03/12 01:52:05;;;;;;;7.47;3.73;;;;;;;2.80;87.54;101036.22;4908026;29;20448;-76
2023/03/12 01:54:43;;;;;;;8.60;3.60;;;;;;;2.72;85.51;101037.50;4908594;29;20509;-76
2023/03/12 01:57:34;;;;;;;6.75;3.30;;;;;;;2.74;86.36;101037.44;4915292;29;20456;-75
2023/03/12 02:00:07;;;;;;;6.82;3.15;;;;;;;2.66;85.89;101042.22;4909212;29;20048;-74
2023/03/12 02:02:35;;;;;;;4.68;3.17;;;;;;;2.66;86.40;101047.41;4915107;29;20167;-76
2023/03/12 02:05:05;;;;;;;9.40;3.90;;;;;;;2.64;87.46;101039.72;4904263;29;20135;-75
2023/03/12 02:07:33;;;;;;;7.90;3.63;;;;;;;2.71;89.53;101038.44;4910588;29;20567;-75
2023/03/12 02:10:00;;;;;;;8.43;3.87;;;;;;;2.62;86.86;101038.16;4913245;29;20056;-75
2023/03/12 02:12:27;;;;;;;6.53;3.50;;;;;;;2.63;88.60;101032.06;4903445;29;20088;-75
2023/03/12 02:14:54;;;;;;;9.23;3.50;;;;;;;2.65;88.71;101025.88;4914019;29;20414;-75
2023/03/12 02:17:20;;;;;;;8.85;3.97;;;;;;;2.67;90.10;101012.84;4916687;29;20690;-73
2023/03/12 02:20:16;;;;;;;7.00;3.47;;;;;;;2.71;89.81;101017.72;4910238;29;20060;-74
2023/03/12 02:22:48;;;;;;;10.30;4.10;;;;;;;2.79;90.33;101014.69;4907775;29;20490;-76
2023/03/12 02:25:38;;;;;;;9.27;4.05;;;;;;;2.79;89.98;101011.28;4920597;29;20406;-73
2023/03/12 02:28:12;;;;;;;7.72;3.65;;;;;;;2.80;90.04;101005.97;4899229;29;20120;-75
2023/03/12 02:30:42;;;;;;;7.55;3.83;;;;;;;2.82;90.41;101006.72;4897770;29;20052;-75
2023/03/12 02:33:09;;;;;;;11.13;3.72;;;;;;;2.84;89.13;101002.28;4906665;29;20063;-74
2023/03/12 02:35:36;;;;;;;8.43;4.22;;;;;;;2.85;90.88;100996.19;4908096;29;20052;-74
2023/03/12 02:38:32;;;;;;;8.25;3.80;;;;;;;2.92;93.05;100996.63;4914094;29;20052;-75
2023/03/12 02:41:15;;;;;;;8.27;3.58;;;;;;;2.94;94.27;101002.56;4897313;29;20060;-75
2023/03/12 02:43:46;;;;;;;10.25;4.32;;;;;;;2.94;95.91;100981.81;4914302;29;20078;-76
2023/03/12 02:46:13;;;;;;;6.47;3.40;;;;;;;2.89;93.70;100976.09;4903007;29;20052;-75
2023/03/12 02:48:40;;;;;;;8.07;3.47;;;;;;;2.92;93.25;100974.16;4909792;29;20044;-75
2023/03/12 02:51:06;;;;;;;6.38;3.05;;;;;;;2.94;92.04;100969.72;4906769;29;20064;-74
2023/03/12 02:53:33;;;;;;;8.38;3.83;;;;;;;2.89;89.15;100976.94;4914047;29;20092;-75
2023/03/12 02:56:00;;;;;;;6.03;2.88;;;;;;;2.91;89.21;100967.31;4906966;29;20156;-75
2023/03/12 02:58:26;;;;;;;9.80;2.65;;;;;;;2.94;89.98;100964.53;4912657;29;20054;-75
2023/03/12 03:00:53;;;;;;;7.38;2.72;;;;;;;2.96;88.48;100952.31;4909058;29;20070;-75
2023/03/12 03:03:20;;;;;;;9.30;2.55;;;;;;;2.99;89.48;100953.88;4903827;29;20104;-75
2023/03/12 03:05:46;;;;;;;6.18;2.38;;;;;;;3.03;89.88;100950.16;4914346;29;20112;-75
2023/03/12 03:08:13;;;;;;;6.45;3.20;;;;;;;3.05;90.22;100953.50;4906956;29;20048;-68
2023/03/12 03:10:39;;;;;;;6.68;2.30;;;;;;;3.03;86.32;100952.75;4913364;29;20143;-69
2023/03/12 03:13:07;;;;;;;7.28;2.70;;;;;;;3.07;89.43;100953.41;4906425;29;20548;-69
2023/03/12 03:15:33;;;;;;;5.47;2.25;;;;;;;3.02;86.82;100951.13;4906245;29;20360;-69
2023/03/12 03:18:02;;;;;;;5.70;2.38;;;;;;;3.02;87.57;100947.66;4918208;29;20051;-69
2023/03/12 03:20:30;;;;;;;7.97;2.78;;;;;;;3.04;85.91;100941.47;4907116;29;20120;-69
2023/03/12 03:22:57;;;;;;;5.97;2.38;;;;;;;3.05;86.36;100937.94;4911207;29;20048;-75
2023/03/12 03:25:24;;;;;;;6.25;2.50;;;;;;;3.04;84.54;100951.84;4907521;29;20056;-74
2023/03/12 03:27:50;;;;;;;8.68;2.63;;;;;;;3.05;87.67;100930.16;4905337;29;20052;-75
2023/03/12 03:30:18;;;;;;;6.93;3.00;;;;;;;3.04;84.80;100931.13;4902415;28;20044;-76
2023/03/12 03:32:44;;;;;;;8.38;3.15;;;;;;;3.03;85.71;100939.81;4913422;29;20151;-75
2023/03/12 03:35:11;;;;;;;3.83;2.25;;;;;;;2.92;85.07;100932.69;4896348;29;20055;-76
2023/03/12 03:37:37;;;;;;;7.32;2.85;;;;;;;2.88;84.04;100931.22;4907466;29;20052;-75
2023/03/12 03:40:05;;;;;;;6.18;2.30;;;;;;;2.90;85.17;100931.13;4912852;29;20064;-75
2023/03/12 03:42:31;;;;;;;6.82;2.70;;;;;;;2.86;87.60;100927.03;4901706;29;20063;-75
2023/03/12 03:44:58;;;;;;;6.45;2.42;;;;;;;2.91;88.54;100930.19;4908514;29;20420;-75
2023/03/12 03:47:24;;;;;;;6.75;2.65;;;;;;;2.84;86.01;100934.09;4907210;29;20048;-76
2023/03/12 03:49:51;;;;;;;9.57;2.90;;;;;;;2.88;88.33;100931.22;4913172;29;20063;-76
2023/03/12 03:52:17;;;;;;;8.77;3.30;;;;;;;2.80;85.02;100925.66;4913008;29;20136;-75
2023/03/12 03:54:44;;;;;;;5.95;3.08;;;;;;;2.78;87.15;100922.34;4906172;29;20074;-75
2023/03/12 03:57:10;;;;;;;10.68;2.60;;;;;;;2.88;88.86;100918.28;4908248;29;20055;-75
2023/03/12 03:59:37;;;;;;;7.85;2.63;;;;;;;2.83;87.80;100915.13;4907527;29;20087;-74
2023/03/12 04:02:04;;;;;;;5.88;2.85;;;;;;;2.91;90.57;100910.28;4913091;29;20087;-74
2023/03/12 04:04:30;;;;;;;6.28;3.05;;;;;;;2.88;88.54;100912.25;4908723;29;20070;-74
2023/03/12 04:06:57;;;;;;;5.53;2.45;;;;;;;2.86;90.33;100914.94;4910723;29;20106;-75
2023/03/12 04:09:24;;;;;;;12.95;2.97;;;;;;;2.91;90.34;100919.84;4909292;29;20342;-75
2023/03/12 04:11:51;;;;;;;3.78;2.20;;;;;;;2.94;90.72;100911.84;4903227;29;20585;-74
2023/03/12 04:14:17;;;;;;;5.60;2.75;;;;;;;2.94;90.93;100904.94;4912430;29;20071;-75
2023/03/12 04:16:44;;;;;;;5.03;2.50;;;;;;;2.91;90.35;100899.09;4904551;29;20148;-74
2023/03/12 04:19:10;;;;;;;6.43;2.30;;;;;;;2.92;91.68;100890.38;4895581;29;20075;-74
2023/03/12 04:21:38;;;;;;;9.68;2.70;;;;;;;2.93;92.87;100892.06;4912487;29;20044;-75
2023/03/12 04:24:06;;;;;;;7.28;2.40;;;;;;;3.00;93.66;100877.81;4900438;29;20055;-75
2023/03/12 04:26:33;;;;;;;6.70;2.70;;;;;;;3.01;93.13;100874.28;4907593;29;20525;-75
2023/03/12 04:28:59;;;;;;;8.18;2.83;;;;;;;2.97;93.35;100884.00;4906780;29;20735;-75
2023/03/12 04:31:26;;;;;;;8.35;2.60;;;;;;;2.93;93.65;100889.47;4912582;29;20071;-75
2023/03/12 04:33:53;;;;;;;7.00;2.80;;;;;;;3.03;95.99;100884.56;4905183;29;20143;-75
2023/03/12 04:36:19;;;;;;;7.45;2.97;;;;;;;2.94;95.77;100884.22;4912823;29;20056;-74
2023/03/12 04:38:46;;;;;;;11.15;3.17;;;;;;;3.03;96.25;100872.41;4902935;29;20760;-74
2023/03/12 04:41:14;;;;;;;6.85;3.15;;;;;;;3.09;97.44;100866.84;4903321;29;20052;-76
2023/03/12 04:43:40;;;;;;;9.32;2.78;;;;;;;3.01;97.52;100863.09;4912574;29;20132;-75
2023/03/12 04:46:08;;;;;;;7.65;2.97;;;;;;;3.03;99.28;100859.47;4905953;29;20052;-75
2023/03/12 04:48:35;;;;;;;8.65;3.00;;;;;;;3.10;100.00;100858.16;4912559;29;20523;-75
2023/03/12 04:51:03;;;;;;;8.55;2.70;;;;;;;3.05;98.67;100862.78;4903296;29;20107;-75
2023/03/12 04:53:29;;;;;;;6.57;2.80;;;;;;;3.02;99.00;100875.09;4906725;29;20729;-75
2023/03/12 04:55:56;;;;;;;5.47;2.65;;;;;;;2.93;100.00;100873.94;4906573;29;20474;-73
2023/03/12 04:58:23;;;;;;;4.43;2.70;;;;;;;2.89;100.00;100869.88;4906185;29;20079;-76
2023/03/12 05:00:50;;;;;;;6.65;2.45;;;;;;;2.95;100.00;100864.31;4911596;29;20607;-74
2023/03/12 05:03:17;;;;;;;8.05;2.85;;;;;;;3.00;100.00;100858.81;4905832;29;20134;-74
2023/03/12 05:05:44;;;;;;;7.25;2.75;;;;;;;3.01;100.00;100858.72;4903494;29;20051;-72
2023/03/12 05:08:11;;;;;;;12.07;3.08;;;;;;;3.03;100.00;100859.47;4900658;29;20155;-75
2023/03/12 05:10:37;;;;;;;7.65;3.03;;;;;;;3.05;100.00;100849.00;4911950;29;20048;-76
2023/03/12 05:13:12;;;;;;;6.88;3.03;;;;;;;3.13;100.00;100839.81;4911459;29;20143;-74
2023/03/12 05:15:39;;;;;;;11.55;3.70;;;;;;;3.11;100.00;100839.06;4900461;29;20066;-76
2023/03/12 05:18:05;;;;;;;6.15;2.83;;;;;;;3.12;100.00;100826.97;4913047;29;20505;-75
2023/03/12 05:20:32;;;;;;;6.15;3.40;;;;;;;3.16;100.00;100820.66;4902486;29;20537;-75
2023/03/12 05:22:58;;;;;;;5.68;3.50;;;;;;;3.21;100.00;100812.56;4909135;29;20429;-76
2023/03/12 05:25:25;;;;;;;8.50;4.03;;;;;;;3.27;100.00;100804.38;4907246;29;20138;-75
2023/03/12 05:27:51;;;;;;;11.48;3.45;;;;;;;3.33;100.00;100812.63;4913710;29;20080;-73
2023/03/12 05:30:18;;;;;;;5.35;3.28;;;;;;;3.36;100.00;100807.22;4914843;29;20054;-75
2023/03/12 05:32:44;;;;;;;6.15;2.83;;;;;;;3.42;100.00;100800.81;4908591;29;20070;-75
2023/03/12 05:35:11;;;;;;;8.68;3.85;;;;;;;3.43;100.00;100788.66;4909477;29;20112;-75
2023/03/12 05:37:38;;;;;;;7.40;2.88;;;;;;;3.36;100.00;100776.09;4911451;29;20056;-72
2023/03/12 05:40:06;;;;;;;9.15;3.03;;;;;;;3.42;100.00;100785.25;4918622;29;20060;-74
2023/03/12 05:42:33;;;;;;;5.72;2.50;;;;;;;3.48;100.00;100776.22;4927620;28;20048;-73
2023/03/12 05:44:59;;;;;;;5.80;2.20;;;;;;;3.41;100.00;100772.38;4928571;29;20151;-74
2023/03/12 05:47:26;;;;;;;6.55;2.30;;;;;;;3.45;100.00;100781.59;4907385;29;20136;-74
2023/03/12 05:49:52;;;;;;;7.68;2.92;;;;;;;3.52;100.00;100783.69;4908973;29;20081;-74
2023/03/12 05:52:19;;;;;;;7.53;2.80;;;;;;;3.54;100.00;100779.22;4909624;29;20052;-75
2023/03/12 05:54:46;;;;;;;10.68;2.97;;;;;;;3.52;100.00;100778.50;4893710;29;20059;-76
2023/03/12 05:57:12;;;;;;;7.03;2.70;;;;;;;3.51;100.00;100783.81;4912641;29;20127;-73
2023/03/12 05:59:39;;;;;;;6.30;2.60;;;;;;;3.47;100.00;100778.00;4906237;29;20410;-74
2023/03/12 06:02:06;;;;;;;8.27;2.92;;;;;;;3.48;100.00;100781.41;4905445;29;20079;-76
2023/03/12 06:04:32;;;;;;;5.13;2.80;;;;;;;3.44;100.00;100775.59;4895171;29;20052;-75
2023/03/12 06:06:59;;;;;;;4.40;2.72;;;;;;;3.43;100.00;100771.34;4905161;29;20055;-75
2023/03/12 06:09:25;;;;;;;6.15;2.70;;;;;;;3.42;100.00;100767.09;4912032;29;20566;-75
2023/03/12 06:11:52;;;;;;;5.13;2.47;;;;;;;3.43;100.00;100760.97;4904544;29;20040;-74
2023/03/12 06:14:18;;;;;;;8.75;2.95;;;;;;;3.43;100.00;100771.34;4890185;29;20347;-75
2023/03/12 06:16:45;;;;;;;6.90;2.60;;;;;;;3.46;100.00;100771.13;4902671;29;20060;-75
2023/03/12 06:19:13;;;;;;;7.78;3.58;;;;;;;3.49;100.00;100764.91;4914044;29;20056;-75
2023/03/12 06:21:41;;;;;;;7.93;2.70;;;;;;;3.53;100.00;100772.41;4915035;29;20409;-74
2023/03/12 06:24:08;;;;;;;10.13;2.45;;;;;;;3.51;100.00;100769.09;4908591;29;20904;-75
2023/03/12 06:26:34;;;;;;;4.93;2.85;;;;;;;3.48;100.00;100760.66;4915204;29;20240;-76
2023/03/12 06:29:01;;;;;;;6.07;3.05;;;;;;;3.45;100.00;100763.44;4901669;29;20056;-75
2023/03/12 06:31:28;;;;;;;7.20;2.95;;;;;;;3.50;100.00;100766.59;4916597;29;20060;-75
2023/03/12 06:33:54;;;;;;;5.88;2.90;;;;;;;3.49;100.00;100770.94;4912168;29;20124;-75
2023/03/12 06:36:22;;;;;;;6.95;3.30;;;;;;;3.39;100.00;100771.63;4898111;29;20074;-75
2023/03/12 06:38:49;;;;;;;5.63;2.95;;;;;;;3.30;100.00;100778.28;4897450;29;20056;-74
2023/03/12 06:41:18;;;;;;;8.70;3.28;;;;;;;3.27;100.00;100776.69;4910954;29;20064;-75
2023/03/12 06:43:45;;;;;;;9.40;3.15;;;;;;;3.21;100.00;100776.28;4907290;29;20044;-75
2023/03/12 06:46:14;;;;;;;10.50;4.15;;;;;;;3.14;100.00;100773.25;4907554;29;20087;-75
2023/03/12 06:48:41;;;;;;;8.25;3.40;;;;;;;3.13;100.00;100764.63;4914212;29;20056;-75
2023/03/12 06:51:09;;;;;;;6.40;3.13;;;;;;;3.13;100.00;100750.84;4907636;29;20082;-75
2023/03/12 06:53:36;;;;;;;9.75;3.83;;;;;;;3.15;100.00;100747.22;4914795;29;20158;-75
2023/03/12 06:56:07;;;;;;;8.73;3.85;;;;;;;3.10;100.00;100749.31;4903243;29;20051;-75
2023/03/12 06:58:33;;;;;;;14.93;4.28;;;;;;;3.13;100.00;100767.22;4904143;29;20191;-75
2023/03/12 07:01:00;;;;;;;6.30;3.20;;;;;;;3.14;100.00;100760.31;4904159;29;20057;-75
2023/03/12 07:03:27;;;;;;;8.45;3.30;;;;;;;3.09;100.00;100755.41;4907202;29;20107;-75
2023/03/12 07:05:56;;;;;;;8.32;2.95;;;;;;;3.22;100.00;100747.66;4894176;29;20059;-76
2023/03/12 07:08:24;;;;;;;10.52;3.17;;;;;;;3.20;100.00;100740.94;4902025;29;20047;-75
2023/03/12 07:10:50;;;;;;;8.60;3.65;;;;;;;3.17;100.00;100735.03;4910076;29;20418;-75
2023/03/12 07:13:17;;;;;;;6.25;2.92;;;;;;;3.16;100.00;100733.34;4903490;29;20056;-72
2023/03/12 07:15:45;;;;;;;6.38;2.90;;;;;;;3.19;100.00;100737.47;4907774;29;20051;-75
2023/03/12 07:18:12;;;;;;;6.72;3.25;;;;;;;3.22;100.00;100731.28;4911810;29;20124;-75
2023/03/12 07:20:41;;;;;;;7.15;3.15;;;;;;;3.27;100.00;100729.19;4907702;29;20143;-75
2023/03/12 07:23:09;;;;;;;7.45;3.10;;;;;;;3.41;100.00;100721.38;4912502;29;20063;-75
2023/03/12 07:25:37;;;;;;;8.70;3.08;;;;;;;3.44;100.00;100715.94;4904468;29;20060;-75
2023/03/12 07:28:05;;;;;;;5.43;3.03;;;;;;;3.42;100.00;100711.81;4912407;29;20052;-75
2023/03/12 07:30:32;;;;;;;7.50;2.90;;;;;;;3.38;100.00;100718.97;4907398;29;20060;-76
2023/03/12 07:33:11;;;;;;;5.70;2.67;;;;;;;3.36;100.00;100711.28;4911582;29;20052;-76
2023/03/12 07:35:38;;;;;;;7.82;3.15;;;;;;;3.42;100.00;100704.03;4914113;29;20535;-75
2023/03/12 07:38:06;;;;;;;5.60;3.05;;;;;;;3.51;100.00;100696.47;4904263;29;20067;-75
2023/03/12 07:40:34;;;;;;;13.32;3.67;;;;;;;3.44;100.00;100709.94;4912638;29;20108;-76
2023/03/12 07:43:02;;;;;;;9.02;3.50;;;;;;;3.43;100.00;100703.09;4908057;29;20083;-75
2023/03/12 07:45:28;;;;;;;7.90;3.47;;;;;;;3.38;100.00;100700.81;4914893;29;20135;-75
2023/03/12 07:47:55;;;;;;;9.15;3.35;;;;;;;3.42;100.00;100709.22;4907225;29;20481;-76
2023/03/12 07:50:22;;;;;;;9.70;3.22;;;;;;;3.31;100.00;100695.22;4914860;29;20107;-74
2023/03/12 07:52:48;;;;;;;15.10;3.85;;;;;;;3.25;100.00;100689.59;4907955;29;20072;-75
2023/03/12 07:55:16;;;;;;;7.53;3.33;;;;;;;3.31;100.00;100691.78;4909521;29;20080;-76
2023/03/12 07:57:43;;;;;;;7.47;3.58;;;;;;;3.35;100.00;100694.06;4918943;29;20051;-74
2023/03/12 08:00:10;;;;;;;5.93;3.88;;;;;;;3.40;100.00;100704.13;4924245;29;20092;-76
2023/03/12 08:02:37;;;;;;;10.77;4.00;;;;;;;3.43;100.00;100703.94;4914594;29;20060;-76
2023/03/12 08:05:04;;;;;;;9.05;3.55;;;;;;;3.31;100.00;100709.91;4895689;29;20052;-74
2023/03/12 08:07:33;;;;;;;10.13;4.55;;;;;;;3.34;100.00;100705.38;4907589;29;20083;-76
2023/03/12 08:10:04;;;;;;;;;;;;;;;3.48;100.00;100699.25;4910766;29;20044;-74
2023/03/12 08:12:31;;;;;;;10.27;3.80;;;;;;;3.33;100.00;100700.28;4909242;29;19982;-75
2023/03/12 08:14:58;;;;;;;7.22;4.22;;;;;;;3.35;100.00;100711.38;4909587;29;20044;-76
2023/03/12 08:17:24;;;;;;;7.80;4.53;;;;;;;3.34;100.00;100720.91;4911094;29;20086;-76
2023/03/12 08:19:51;;;;;;;8.93;4.45;;;;;;;3.36;100.00;100710.44;4908205;29;20427;-74
2023/03/12 08:22:18;;;;;;;7.13;4.07;;;;;;;3.42;100.00;100720.41;4902197;29;20090;-75
2023/03/12 08:24:44;;;;;;;9.15;4.53;;;;;;;3.47;100.00;100722.69;4915979;29;20051;-75
2023/03/12 08:27:11;;;;;;;7.00;4.38;;;;;;;3.52;100.00;100726.63;4896174;29;20058;-76
2023/03/12 08:29:39;;;;;;;9.80;4.53;;;;;;;3.52;100.00;100716.25;4904997;29;20082;-76
2023/03/12 08:32:06;;;;;;;12.38;4.70;;;;;;;3.49;100.00;100715.63;4919537;29;20048;-75
2023/03/12 08:34:33;;;;;;;5.93;4.22;;;;;;;3.47;100.00;100704.53;4900022;29;20148;-75
2023/03/12 08:37:00;;;;;;;9.95;4.97;;;;;;;3.53;100.00;100706.75;4893604;29;20779;-75
2023/03/12 08:39:27;;;;;;;12.23;4.93;;;;;;;3.61;100.00;100706.19;4906981;29;20493;-76
2023/03/12 08:41:54;;;;;;;8.27;4.78;;;;;;;3.59;100.00;100708.06;4911697;29;20056;-76
2023/03/12 08:44:22;;;;;;;9.30;5.25;;;;;;;3.67;100.00;100708.41;4911568;29;20052;-75
2023/03/12 08:46:49;;;;;;;6.05;4.45;;;;;;;3.65;100.00;100708.50;4904478;29;20063;-74
2023/03/12 08:49:16;;;;;;;10.50;5.18;;;;;;;3.67;100.00;100713.59;4901799;29;20075;-76
2023/03/12 08:51:43;;;;;;;10.07;4.80;;;;;;;3.70;100.00;100723.72;4905864;29;20060;-77
2023/03/12 08:54:09;;;;;;;10.80;5.13;;;;;;;3.74;100.00;100718.25;4912300;29;20052;-76
2023/03/12 08:56:40;;;;;;;10.68;5.47;;;;;;;3.72;100.00;100720.13;4906222;29;20071;-76
2023/03/12 08:59:08;;;;;;;7.15;4.22;;;;;;;3.68;100.00;100723.84;4913732;29;20131;-75
2023/03/12 09:01:35;;;;;;;9.50;5.43;;;;;;;3.76;100.00;100711.19;4900476;29;20060;-76
2023/03/12 09:04:02;;;;;;;10.50;6.18;;;;;;;3.82;100.00;100716.88;4909033;29;20083;-75
2023/03/12 09:06:29;;;;;;;9.25;5.68;;;;;;;3.81;100.00;100723.84;4911629;29;20059;-77
2023/03/12 09:08:56;;;;;;;9.00;6.10;;;;;;;3.76;100.00;100721.56;4908436;29;20082;-76
2023/03/12 09:11:25;;;;;;;10.48;6.18;;;;;;;3.78;100.00;100725.81;4914029;29;20084;-77
2023/03/12 09:13:52;;;;;;;9.75;5.97;;;;;;;3.83;100.00;100721.97;4906990;29;20060;-76
2023/03/12 09:16:38;;;;;;;8.00;5.45;;;;;;;3.92;100.00;100725.69;4894112;29;20079;-75
2023/03/12 09:19:05;;;;;;;9.60;5.30;;;;;;;3.94;100.00;100729.03;4911358;29;20497;-77
2023/03/12 09:21:31;;;;;;;9.68;5.40;;;;;;;3.95;100.00;100723.72;4916618;29;20668;-77
2023/03/12 09:23:58;;;;;;;9.00;5.82;;;;;;;4.01;100.00;100725.06;4922421;29;20063;-78
2023/03/12 09:26:25;;;;;;;9.00;6.55;;;;;;;4.03;100.00;100720.59;4906321;29;20052;-75
2023/03/12 09:28:51;;;;;;;13.20;6.13;;;;;;;4.09;100.00;100719.34;4908198;29;20048;-74
2023/03/12 09:31:18;;;;;;;9.38;6.22;;;;;;;4.10;100.00;100727.03;4901260;29;20115;-77
2023/03/12 09:33:44;;;;;;;13.40;6.70;;;;;;;4.15;100.00;100719.72;4911026;29;20071;-74
2023/03/12 09:36:11;;;;;;;10.82;6.82;;;;;;;4.19;100.00;100722.13;4904016;29;20054;-75
2023/03/12 09:38:37;;;;;;;9.48;6.13;;;;;;;4.20;100.00;100726.38;4911854;29;20056;-75
2023/03/12 09:41:05;;;;;;;12.40;7.70;;;;;;;4.26;100.00;100710.38;4911200;29;20056;-75
2023/03/12 09:43:44;;;;;;;10.88;6.95;;;;;;;4.38;100.00;100712.09;4900813;29;20052;-73
2023/03/12 09:46:23;;;;;;;10.20;6.57;;;;;;;4.40;100.00;100719.78;4904154;29;20059;-75
2023/03/12 09:48:51;;;;;;;9.57;7.13;;;;;;;4.46;100.00;100717.56;4909231;29;20040;-74
2023/03/12 09:51:36;;;;;;;12.52;7.72;;;;;;;4.59;100.00;100711.47;4913732;29;20094;-77
2023/03/12 09:54:06;;;;;;;13.15;8.50;;;;;;;4.64;100.00;100710.22;4909986;29;20051;-75
2023/03/12 09:56:33;;;;;;;11.75;8.13;;;;;;;4.72;100.00;100712.25;4913956;29;20074;-77
2023/03/12 09:59:00;;;;;;;13.82;8.93;;;;;;;4.78;100.00;100717.00;4885026;29;20087;-74
2023/03/12 10:01:48;;;;;;;12.63;8.13;;;;;;;4.84;100.00;100721.78;4914025;29;20430;-74
2023/03/12 10:04:33;;;;;;;14.70;9.13;;;;;;;4.81;100.00;100715.97;4908343;29;20056;-75
2023/03/12 10:07:26;;;;;;;13.90;8.57;;;;;;;4.90;100.00;100726.53;4907365;29;20062;-75
2023/03/12 10:10:15;;;;;;;14.43;8.68;;;;;;;4.99;100.00;100724.19;4907553;29;20135;-73
2023/03/12 10:13:19;;;;;;;17.05;10.00;;;;;;;5.04;100.00;100722.09;4908838;29;20055;-75
2023/03/12 10:16:07;;;;;;;16.58;9.63;;;;;;;5.11;100.00;100718.91;4908441;29;20077;-77
2023/03/12 10:18:45;;;;;;;17.20;10.60;;;;;;;5.18;100.00;100711.50;4920523;29;20468;-77
2023/03/12 10:21:33;;;;;;;17.25;10.25;;;;;;;5.24;100.00;100720.63;4908518;29;20075;-74
2023/03/12 10:24:05;;;;;;;15.70;9.98;;;;;;;5.33;100.00;100710.34;4914155;29;20541;-72
2023/03/12 10:27:00;;;;;;;18.13;11.93;;;;;;;5.40;100.00;100708.13;4908058;29;20112;-72
2023/03/12 10:29:37;;;;;;;22.02;11.75;;;;;;;5.44;100.00;100706.94;4911759;29;20063;-73
2023/03/12 10:32:12;;;;;;;22.80;12.50;;;;;;;5.50;100.00;100708.25;4914604;29;20102;-74
2023/03/12 10:34:52;;;;;;;21.85;12.55;;;;;;;5.61;100.00;100707.44;4908173;29;20087;-74
2023/03/12 10:37:55;;;;;;;20.58;12.45;;;;;;;5.70;100.00;100697.16;4910197;29;20048;-73
2023/03/12 10:40:26;;;;;;;25.23;13.38;;;;;;;5.82;100.00;100703.19;4822979;29;20144;-73
2023/03/12 10:42:54;;;;;;;18.65;11.70;;;;;;;5.92;100.00;100693.72;4835107;29;20061;-73
2023/03/12 10:45:43;;;;;;;22.58;13.93;;;;;;;6.03;100.00;100695.50;4827812;29;20054;-74
2023/03/12 10:48:18;;;;;;;22.70;13.07;;;;;;;6.11;100.00;100695.72;4821155;29;20375;-74
2023/03/12 10:51:00;;;;;;;20.85;12.90;;;;;;;6.21;100.00;100695.00;4830267;29;20244;-73
2023/03/12 10:53:30;;;;;;;25.25;15.70;;;;;;;6.29;100.00;100698.69;4832444;29;20149;-74
2023/03/12 10:56:02;;;;;;;23.23;14.25;;;;;;;6.40;100.00;100694.38;4815100;29;20537;-73
2023/03/12 10:58:38;;;;;;;21.67;14.65;;;;;;;6.46;100.00;100694.72;4837113;29;20145;-73
2023/03/12 11:01:14;;;;;;;25.13;14.20;;;;;;;6.56;100.00;100684.38;4830343;29;20518;-74
2023/03/12 11:03:42;;;;;;;25.00;14.82;;;;;;;6.65;100.00;100675.81;4837947;29;20610;-74
2023/03/12 11:06:18;;;;;;;22.40;15.23;;;;;;;6.75;100.00;100688.94;4835752;29;20062;-74
2023/03/12 11:09:04;;;;;;;25.98;16.00;;;;;;;6.85;100.00;100697.66;4824679;29;20112;-73
2023/03/12 11:11:46;;;;;;;27.83;14.90;;;;;;;6.98;100.00;100692.28;4836533;29;20049;-74
2023/03/12 11:14:20;;;;;;;22.83;14.50;;;;;;;7.08;100.00;100694.97;4856746;29;20056;-74
2023/03/12 11:16:47;;;;;;;29.80;17.80;;;;;;;7.13;100.00;100704.06;4917880;29;20052;-75
2023/03/12 11:19:27;;;;;;;22.90;15.18;;;;;;;7.24;100.00;100697.94;4907313;29;20071;-74
2023/03/12 11:21:57;;;;;;;26.00;14.95;;;;;;;7.28;100.00;100701.94;4909018;29;20677;-75
2023/03/12 11:24:23;;;;;;;28.88;16.42;;;;;;;7.32;100.00;100698.13;4901710;29;20058;-74
2023/03/12 11:27:20;;;;;;;35.08;17.10;;;;;;;7.46;100.00;100693.53;4913759;29;20056;-74
2023/03/12 11:29:49;;;;;;;30.65;15.15;;;;;;;7.54;100.00;100683.28;4898220;29;20537;-74
2023/03/12 11:32:40;;;;;;;24.13;14.32;;;;;;;7.64;100.00;100691.16;4913353;29;20489;-75
2023/03/12 11:35:12;;;;;;;28.45;13.55;;;;;;;7.76;100.00;100702.34;4908844;29;20457;-75
2023/03/12 11:37:51;;;;;;;30.27;13.10;;;;;;;7.86;100.00;100719.72;4912340;29;20055;-75